Time;durP1;ratioP1;P1;durP2;ratioP2;P2;SDS_P1;SDS_P2;PMS_P1;PMS_P2;Temp;Humidity;BMP_temperature;BMP_pressure;BME280_temperature;BME280_humidity;BME280_pressure;Samples;Min_cycle;Max_cycle;Signal;HPM_P1;HPM_P2
2022/10/16 00:01:20;;;;;;;3.25;2.17;;;;;;;;;;5050643;28;20033;-81
2022/10/16 00:03:49;;;;;;;2.63;1.55;;;;;;;;;;5049517;28;20486;-82
2022/10/16 00:06:16;;;;;;;4.20;2.00;;;;;;;;;;5051700;28;20499;-82
2022/10/16 00:08:45;;;;;;;1.75;1.50;;;;;;;;;;5064214;28;20505;-82
2022/10/16 00:11:13;;;;;;;3.28;1.50;;;;;;;;;;5050766;28;20036;-82
2022/10/16 00:13:43;;;;;;;5.13;1.70;;;;;;;;;;5048395;28;20047;-82
2022/10/16 00:16:12;;;;;;;3.88;1.98;;;;;;;;;;5048319;28;20044;-82
2022/10/16 00:18:43;;;;;;;3.45;1.73;;;;;;;;;;5051024;28;20036;-82
2022/10/16 00:21:13;;;;;;;4.97;1.90;;;;;;;;;;5061226;28;20036;-82
2022/10/16 00:24:04;;;;;;;2.83;2.05;;;;;;;;;;5049991;28;20033;-82
2022/10/16 00:26:31;;;;;;;2.20;1.92;;;;;;;;;;5065587;28;20021;-82
2022/10/16 00:29:02;;;;;;;7.47;2.10;;;;;;;;;;5048774;28;20028;-82
2022/10/16 00:31:31;;;;;;;4.07;1.65;;;;;;;;;;5044711;28;20029;-81
2022/10/16 00:34:00;;;;;;;6.35;2.25;;;;;;;;;;5048920;28;20033;-82
2022/10/16 00:36:31;;;;;;;2.33;1.77;;;;;;;;;;5049178;28;20044;-82
2022/10/16 00:39:00;;;;;;;4.35;2.03;;;;;;;;;;5046415;28;20040;-82
2022/10/16 00:41:29;;;;;;;6.13;2.22;;;;;;;;;;5049509;28;20021;-82
2022/10/16 00:43:56;;;;;;;2.83;2.10;;;;;;;;;;5049074;28;20483;-82
2022/10/16 00:46:39;;;;;;;5.55;2.95;;;;;;;;;;5049166;28;20032;-81
2022/10/16 00:49:07;;;;;;;3.67;2.30;;;;;;;;;;5049767;28;20029;-82
2022/10/16 00:51:54;;;;;;;3.67;2.00;;;;;;;;;;5048931;28;20025;-81
2022/10/16 00:54:22;;;;;;;2.47;2.20;;;;;;;;;;5049262;28;20025;-81
2022/10/16 00:56:50;;;;;;;3.72;1.48;;;;;;;;;;5030236;28;20398;-81
2022/10/16 00:59:17;;;;;;;2.42;2.10;;;;;;;;;;5047888;28;20047;-81
2022/10/16 01:01:46;;;;;;;2.70;1.80;;;;;;;;;;5044141;28;20033;-81
2022/10/16 01:04:12;;;;;;;2.78;1.85;;;;;;;;;;5046282;28;20033;-81
2022/10/16 01:06:57;;;;;;;2.70;1.98;;;;;;;;;;5049601;28;20375;-82
2022/10/16 01:09:43;;;;;;;2.35;1.52;;;;;;;;;;5048739;28;20045;-82
2022/10/16 01:12:12;;;;;;;5.05;1.98;;;;;;;;;;5027303;28;20040;-82
2022/10/16 01:14:55;;;;;;;6.32;2.28;;;;;;;;;;5045304;28;20616;-81
2022/10/16 01:17:21;;;;;;;;;;;;;;;;;;5044387;28;20032;-82
2022/10/16 01:19:57;;;;;;;3.38;1.77;;;;;;;;;;5047700;28;19915;-82
2022/10/16 01:22:30;;;;;;;5.47;1.98;;;;;;;;;;5049293;28;20035;-82
2022/10/16 01:24:58;;;;;;;5.78;2.13;;;;;;;;;;5047635;28;20029;-82
2022/10/16 01:27:31;;;;;;;2.45;1.35;;;;;;;;;;5049040;28;20055;-82
2022/10/16 01:30:20;;;;;;;3.10;2.15;;;;;;;;;;5056528;28;20503;-81
2022/10/16 01:32:56;;;;;;;4.28;1.73;;;;;;;;;;5048758;28;20025;-82
2022/10/16 01:35:38;;;;;;;5.72;2.47;;;;;;;;;;5049478;28;20037;-82
2022/10/16 01:38:09;;;;;;;6.65;2.03;;;;;;;;;;5046494;28;20044;-82
2022/10/16 01:40:40;;;;;;;5.45;1.60;;;;;;;;;;5049706;28;20037;-81
2022/10/16 01:43:08;;;;;;;7.25;2.80;;;;;;;;;;5048955;28;20032;-82
2022/10/16 01:45:34;;;;;;;11.10;2.28;;;;;;;;;;5051217;28;20032;-82
2022/10/16 01:48:07;;;;;;;4.95;1.98;;;;;;;;;;5051796;28;20040;-82
2022/10/16 01:50:39;;;;;;;3.95;2.00;;;;;;;;;;5065440;28;20025;-82
2022/10/16 01:53:09;;;;;;;2.70;1.90;;;;;;;;;;5051697;28;20032;-82
2022/10/16 01:55:43;;;;;;;3.28;1.80;;;;;;;;;;5052273;28;20029;-82
2022/10/16 01:58:14;;;;;;;4.00;1.77;;;;;;;;;;5051170;28;20033;-82
2022/10/16 02:00:44;;;;;;;3.45;1.98;;;;;;;;;;5051293;28;20029;-82
2022/10/16 02:03:16;;;;;;;4.90;2.10;;;;;;;;;;5050878;28;20036;-81
2022/10/16 02:05:46;;;;;;;1.58;1.42;;;;;;;;;;5049290;28;20039;-82
2022/10/16 02:08:14;;;;;;;3.55;1.85;;;;;;;;;;5052655;28;20025;-82
2022/10/16 02:10:43;;;;;;;3.83;1.85;;;;;;;;;;5053342;28;20025;-81
2022/10/16 02:13:11;;;;;;;3.88;1.42;;;;;;;;;;5050339;28;20035;-82
2022/10/16 02:15:37;;;;;;;3.22;2.15;;;;;;;;;;5048934;28;20048;-82
2022/10/16 02:18:06;;;;;;;9.45;2.47;;;;;;;;;;5052160;28;20416;-81
2022/10/16 02:20:40;;;;;;;4.22;2.13;;;;;;;;;;5050001;28;20029;-81
2022/10/16 02:23:07;;;;;;;8.35;2.13;;;;;;;;;;5051963;28;20029;-82
2022/10/16 02:25:37;;;;;;;6.00;1.98;;;;;;;;;;5068649;28;20033;-82
2022/10/16 02:28:08;;;;;;;3.20;1.77;;;;;;;;;;5051105;28;20025;-82
2022/10/16 02:30:39;;;;;;;7.28;1.70;;;;;;;;;;5048260;28;20032;-82
2022/10/16 02:33:07;;;;;;;4.95;2.17;;;;;;;;;;5051696;28;20055;-82
2022/10/16 02:35:33;;;;;;;2.58;1.85;;;;;;;;;;5055981;28;20070;-82
2022/10/16 02:38:04;;;;;;;8.20;3.25;;;;;;;;;;5042651;28;20392;-82
2022/10/16 02:40:37;;;;;;;;;;;;;;;;;;5046967;28;20044;-82
2022/10/16 02:43:09;;;;;;;3.80;1.45;;;;;;;;;;5044541;28;19909;-82
2022/10/16 02:45:37;;;;;;;4.93;2.05;;;;;;;;;;5050967;28;20033;-82
2022/10/16 02:48:05;;;;;;;5.60;1.85;;;;;;;;;;5047431;28;20032;-82
2022/10/16 02:50:33;;;;;;;7.82;2.33;;;;;;;;;;5049300;28;20040;-82
2022/10/16 02:53:04;;;;;;;7.68;1.85;;;;;;;;;;5049037;28;20037;-82
2022/10/16 02:55:32;;;;;;;3.35;1.73;;;;;;;;;;5047110;28;20042;-82
2022/10/16 02:57:58;;;;;;;3.78;1.80;;;;;;;;;;5052866;28;20074;-82
2022/10/16 03:00:26;;;;;;;8.32;2.83;;;;;;;;;;5049328;28;20044;-84
2022/10/16 03:03:01;;;;;;;3.53;1.52;;;;;;;;;;5051978;28;20032;-84
2022/10/16 03:05:27;;;;;;;4.85;2.05;;;;;;;;;;5051941;28;20044;-82
2022/10/16 03:07:52;;;;;;;6.53;1.77;;;;;;;;;;5051182;28;20425;-81
2022/10/16 03:10:20;;;;;;;4.38;2.20;;;;;;;;;;5050819;28;20994;-83
2022/10/16 03:12:51;;;;;;;7.57;1.73;;;;;;;;;;5051334;28;20028;-82
2022/10/16 03:15:21;;;;;;;3.20;1.80;;;;;;;;;;5049771;28;20123;-82
2022/10/16 03:17:50;;;;;;;2.75;2.08;;;;;;;;;;5052191;28;20033;-83
2022/10/16 03:20:20;;;;;;;2.83;2.03;;;;;;;;;;5048409;28;20044;-83
2022/10/16 03:22:51;;;;;;;4.00;2.50;;;;;;;;;;5067637;28;20107;-83
2022/10/16 03:25:17;;;;;;;3.15;2.58;;;;;;;;;;5062333;28;20037;-84
2022/10/16 03:27:43;;;;;;;4.40;1.90;;;;;;;;;;5050822;28;20491;-83
2022/10/16 03:30:09;;;;;;;2.47;1.80;;;;;;;;;;5049577;28;20029;-83
2022/10/16 03:32:40;;;;;;;2.08;1.63;;;;;;;;;;5047442;28;20029;-83
2022/10/16 03:35:11;;;;;;;5.72;1.88;;;;;;;;;;5051853;28;20390;-84
2022/10/16 03:37:41;;;;;;;9.90;2.17;;;;;;;;;;5050444;28;20059;-83
2022/10/16 03:40:09;;;;;;;4.75;2.03;;;;;;;;;;5051387;28;20036;-83
2022/10/16 03:42:35;;;;;;;2.78;2.22;;;;;;;;;;5048743;28;20538;-83
2022/10/16 03:45:04;;;;;;;3.75;1.95;;;;;;;;;;5051427;28;20044;-83
2022/10/16 03:47:32;;;;;;;4.28;2.25;;;;;;;;;;5051927;28;20044;-83
2022/10/16 03:50:00;;;;;;;4.88;1.90;;;;;;;;;;5044641;28;20040;-83
2022/10/16 03:52:28;;;;;;;11.18;2.70;;;;;;;;;;5049957;28;20033;-83
2022/10/16 03:54:54;;;;;;;4.38;2.08;;;;;;;;;;5048737;28;20047;-83
2022/10/16 03:57:24;;;;;;;7.53;2.42;;;;;;;;;;5049384;28;20036;-83
2022/10/16 03:59:50;;;;;;;5.07;2.28;;;;;;;;;;5050004;28;20033;-83
2022/10/16 04:02:18;;;;;;;3.05;1.45;;;;;;;;;;5049146;28;20029;-83
2022/10/16 04:04:44;;;;;;;5.30;2.25;;;;;;;;;;5051091;28;20036;-83
2022/10/16 04:07:10;;;;;;;4.55;1.70;;;;;;;;;;5051737;28;20032;-83
2022/10/16 04:09:38;;;;;;;3.95;2.38;;;;;;;;;;5049371;28;20044;-83
2022/10/16 04:12:06;;;;;;;5.20;2.00;;;;;;;;;;5048661;28;20025;-83
2022/10/16 04:14:32;;;;;;;3.50;2.15;;;;;;;;;;5049857;28;20025;-83
2022/10/16 04:17:03;;;;;;;4.05;1.90;;;;;;;;;;5050474;28;20399;-84
2022/10/16 04:19:31;;;;;;;5.15;1.95;;;;;;;;;;5050925;28;20036;-83
2022/10/16 04:21:57;;;;;;;2.15;1.80;;;;;;;;;;5049599;28;20036;-83
2022/10/16 04:24:28;;;;;;;6.35;1.98;;;;;;;;;;5049463;28;20032;-83
2022/10/16 04:26:54;;;;;;;2.83;1.60;;;;;;;;;;5049208;28;20461;-83
2022/10/16 04:29:19;;;;;;;4.32;1.92;;;;;;;;;;5049897;28;22016;-83
2022/10/16 04:31:52;;;;;;;4.43;1.98;;;;;;;;;;5048101;28;20032;-83
2022/10/16 04:34:18;;;;;;;2.78;1.83;;;;;;;;;;5049278;28;20036;-83
2022/10/16 04:36:48;;;;;;;5.65;2.20;;;;;;;;;;5051797;28;20025;-83
2022/10/16 04:39:13;;;;;;;3.78;2.67;;;;;;;;;;5050497;28;20033;-83
2022/10/16 04:41:39;;;;;;;5.85;1.70;;;;;;;;;;5047574;28;20040;-83
2022/10/16 04:44:08;;;;;;;2.00;1.45;;;;;;;;;;5050415;28;20027;-83
2022/10/16 04:46:36;;;;;;;5.50;2.30;;;;;;;;;;5063199;28;20122;-83
2022/10/16 04:49:04;;;;;;;3.67;2.38;;;;;;;;;;5051039;28;20024;-83
2022/10/16 04:51:34;;;;;;;3.90;1.90;;;;;;;;;;5043920;28;20047;-83
2022/10/16 04:54:00;;;;;;;4.63;2.20;;;;;;;;;;5057030;28;20037;-84
2022/10/16 04:56:26;;;;;;;5.00;2.03;;;;;;;;;;5048997;28;20036;-83
2022/10/16 04:58:56;;;;;;;2.58;2.03;;;;;;;;;;5048626;28;20068;-83
2022/10/16 05:01:25;;;;;;;2.78;1.67;;;;;;;;;;5046210;28;20032;-83
2022/10/16 05:03:52;;;;;;;3.80;2.63;;;;;;;;;;5049300;28;20032;-83
2022/10/16 05:06:21;;;;;;;6.50;1.58;;;;;;;;;;5049139;28;20043;-83
2022/10/16 05:08:46;;;;;;;5.22;1.38;;;;;;;;;;5050812;28;20033;-83
2022/10/16 05:11:12;;;;;;;6.30;2.00;;;;;;;;;;5048906;28;20071;-83
2022/10/16 05:13:43;;;;;;;1.73;1.60;;;;;;;;;;5049157;28;20032;-83
2022/10/16 05:16:09;;;;;;;3.22;1.60;;;;;;;;;;5047082;28;20029;-84
2022/10/16 05:18:37;;;;;;;4.80;1.98;;;;;;;;;;5051809;28;20040;-83
2022/10/16 05:21:02;;;;;;;2.88;1.70;;;;;;;;;;5051917;28;20033;-83
2022/10/16 05:23:34;;;;;;;8.07;2.30;;;;;;;;;;5057815;28;20041;-83
2022/10/16 05:26:00;;;;;;;5.50;1.67;;;;;;;;;;5050801;28;20617;-83
2022/10/16 05:28:27;;;;;;;2.50;2.00;;;;;;;;;;5050271;28;20120;-83
2022/10/16 05:30:53;;;;;;;2.92;1.83;;;;;;;;;;5052843;28;20025;-83
2022/10/16 05:33:25;;;;;;;5.25;2.85;;;;;;;;;;5053581;28;20043;-83
2022/10/16 05:35:54;;;;;;;6.38;2.28;;;;;;;;;;5052508;28;20051;-83
2022/10/16 05:38:22;;;;;;;6.70;3.50;;;;;;;;;;5053883;28;20040;-84
2022/10/16 05:40:52;;;;;;;3.70;2.45;;;;;;;;;;5054031;28;20032;-83
2022/10/16 05:43:18;;;;;;;4.53;1.95;;;;;;;;;;5053878;28;20029;-83
2022/10/16 05:48:27;;;;;;;3.35;2.03;;;;;;;;;;5030058;28;20045;-75
2022/10/16 05:51:03;;;;;;;3.53;2.50;;;;;;;;;;5033809;28;20502;-75
2022/10/16 05:53:32;;;;;;;3.65;2.20;;;;;;;;;;5033840;28;20056;-75
2022/10/16 05:56:01;;;;;;;2.75;1.73;;;;;;;;;;5032545;28;20033;-75
2022/10/16 05:58:30;;;;;;;2.55;1.58;;;;;;;;;;5026115;28;20036;-75
2022/10/16 06:01:03;;;;;;;5.47;2.15;;;;;;;;;;5031971;28;20032;-75
2022/10/16 06:03:29;;;;;;;4.45;3.25;;;;;;;;;;5033441;28;20033;-74
2022/10/16 06:05:54;;;;;;;2.83;2.03;;;;;;;;;;5030102;28;20368;-75
2022/10/16 06:08:23;;;;;;;2.28;1.38;;;;;;;;;;5032028;28;20033;-75
2022/10/16 06:10:49;;;;;;;5.68;2.55;;;;;;;;;;5032528;28;20017;-75
2022/10/16 06:13:20;;;;;;;3.28;2.25;;;;;;;;;;5031617;28;20037;-75
2022/10/16 06:15:46;;;;;;;5.70;2.75;;;;;;;;;;5042481;28;20034;-74
2022/10/16 06:18:12;;;;;;;7.90;3.40;;;;;;;;;;5034866;28;20026;-75
2022/10/16 06:20:38;;;;;;;5.88;3.20;;;;;;;;;;5029656;28;20458;-75
2022/10/16 06:23:06;;;;;;;6.78;1.90;;;;;;;;;;5026464;28;20523;-75
2022/10/16 06:25:32;;;;;;;5.35;2.55;;;;;;;;;;5030477;28;20037;-75
2022/10/16 06:28:00;;;;;;;3.28;2.35;;;;;;;;;;5026866;28;20052;-75
2022/10/16 06:30:26;;;;;;;4.22;2.40;;;;;;;;;;5029198;28;20044;-75
2022/10/16 06:32:52;;;;;;;2.65;2.35;;;;;;;;;;5027325;28;20387;-75
2022/10/16 06:35:20;;;;;;;3.72;1.92;;;;;;;;;;5032315;28;20495;-75
2022/10/16 06:37:46;;;;;;;4.68;3.28;;;;;;;;;;5033229;28;20029;-75
2022/10/16 06:40:15;;;;;;;6.88;5.32;;;;;;;;;;5031570;28;20048;-75
2022/10/16 06:42:41;;;;;;;4.00;3.38;;;;;;;;;;5031084;28;20037;-74
2022/10/16 06:45:09;;;;;;;4.72;3.55;;;;;;;;;;5026934;28;20040;-75
2022/10/16 06:47:38;;;;;;;2.88;1.98;;;;;;;;;;5026634;28;20041;-75
2022/10/16 06:50:08;;;;;;;2.30;1.63;;;;;;;;;;5032198;28;20585;-75
2022/10/16 06:52:36;;;;;;;4.03;2.53;;;;;;;;;;5021970;28;20400;-75
2022/10/16 06:55:02;;;;;;;2.97;2.00;;;;;;;;;;5026808;28;20108;-75
2022/10/16 06:57:31;;;;;;;2.90;1.67;;;;;;;;;;5024979;28;20502;-75
2022/10/16 06:59:58;;;;;;;2.65;2.08;;;;;;;;;;5026674;28;20026;-75
2022/10/16 07:02:31;;;;;;;2.47;1.92;;;;;;;;;;5024485;28;20041;-75
2022/10/16 07:04:57;;;;;;;2.58;2.15;;;;;;;;;;5039574;28;20030;-75
2022/10/16 07:07:26;;;;;;;5.05;2.53;;;;;;;;;;5026284;28;20033;-76
2022/10/16 07:09:52;;;;;;;2.85;2.13;;;;;;;;;;5012234;28;20044;-75
2022/10/16 07:12:22;;;;;;;3.85;1.77;;;;;;;;;;5024320;28;20037;-75
2022/10/16 07:14:52;;;;;;;3.10;2.80;;;;;;;;;;5030543;28;20387;-75
2022/10/16 07:17:20;;;;;;;3.35;2.28;;;;;;;;;;5026277;28;20026;-77
2022/10/16 07:19:48;;;;;;;3.38;2.53;;;;;;;;;;5031543;28;20033;-74
2022/10/16 07:22:16;;;;;;;6.53;2.47;;;;;;;;;;5026270;28;20113;-74
2022/10/16 07:24:47;;;;;;;2.35;2.13;;;;;;;;;;5032759;28;20044;-75
2022/10/16 07:27:13;;;;;;;2.72;2.03;;;;;;;;;;5013094;28;20225;-75
2022/10/16 07:29:39;;;;;;;3.10;2.20;;;;;;;;;;5023480;28;20033;-75
2022/10/16 07:32:07;;;;;;;3.10;1.95;;;;;;;;;;5027655;28;20372;-74
2022/10/16 07:34:33;;;;;;;6.35;1.70;;;;;;;;;;5013120;28;20056;-75
2022/10/16 07:36:59;;;;;;;3.28;2.38;;;;;;;;;;5031102;28;20029;-74
2022/10/16 07:39:32;;;;;;;2.72;1.80;;;;;;;;;;5012477;28;20044;-75
2022/10/16 07:42:00;;;;;;;4.95;2.22;;;;;;;;;;5021259;28;20033;-75
2022/10/16 07:44:26;;;;;;;2.38;1.52;;;;;;;;;;5029127;28;20037;-76
2022/10/16 07:46:54;;;;;;;2.97;1.70;;;;;;;;;;5026948;28;20036;-76
2022/10/16 07:49:20;;;;;;;4.78;2.63;;;;;;;;;;5023258;28;20037;-75
2022/10/16 07:51:46;;;;;;;5.22;2.00;;;;;;;;;;5026693;28;20414;-74
2022/10/16 07:54:12;;;;;;;3.67;1.95;;;;;;;;;;5027128;28;20108;-74
2022/10/16 07:56:40;;;;;;;2.10;1.40;;;;;;;;;;5028747;28;20049;-74
2022/10/16 07:59:06;;;;;;;7.85;1.98;;;;;;;;;;5023424;28;20029;-74
2022/10/16 08:01:34;;;;;;;3.15;1.85;;;;;;;;;;5026998;28;20033;-74
2022/10/16 08:04:04;;;;;;;1.35;1.25;;;;;;;;;;5026047;28;20025;-74
2022/10/16 08:06:34;;;;;;;3.28;2.13;;;;;;;;;;5028667;28;20033;-74
2022/10/16 08:09:05;;;;;;;3.10;1.33;;;;;;;;;;5028565;28;20025;-74
2022/10/16 08:11:31;;;;;;;4.55;1.52;;;;;;;;;;5022862;28;20026;-74
2022/10/16 08:13:59;;;;;;;2.85;1.65;;;;;;;;;;5030047;28;20025;-75
2022/10/16 08:16:25;;;;;;;2.10;1.90;;;;;;;;;;5032354;28;20105;-75
2022/10/16 08:18:55;;;;;;;3.33;1.55;;;;;;;;;;5031623;28;20037;-74
2022/10/16 08:21:22;;;;;;;3.38;1.48;;;;;;;;;;5031294;28;20446;-74
2022/10/16 08:23:51;;;;;;;3.60;1.38;;;;;;;;;;5030711;28;20037;-75
2022/10/16 08:26:20;;;;;;;3.53;1.30;;;;;;;;;;5021234;28;20037;-74
2022/10/16 08:28:51;;;;;;;2.92;1.77;;;;;;;;;;5027595;28;20475;-75
2022/10/16 08:31:20;;;;;;;3.30;1.63;;;;;;;;;;5028805;28;20033;-74
2022/10/16 08:33:48;;;;;;;3.42;1.42;;;;;;;;;;5024644;28;20052;-76
2022/10/16 08:36:16;;;;;;;4.43;2.17;;;;;;;;;;5023779;28;20033;-76
2022/10/16 08:38:47;;;;;;;2.65;1.65;;;;;;;;;;5026582;28;20044;-73
2022/10/16 08:41:24;;;;;;;2.10;1.50;;;;;;;;;;5025242;28;20032;-73
2022/10/16 08:44:08;;;;;;;1.92;1.30;;;;;;;;;;5019372;28;20036;-74
2022/10/16 08:46:55;;;;;;;2.13;1.55;;;;;;;;;;5025826;28;20040;-75
2022/10/16 08:49:25;;;;;;;5.30;1.65;;;;;;;;;;5024563;28;20032;-75
2022/10/16 08:51:55;;;;;;;2.53;1.67;;;;;;;;;;5028321;28;20029;-75
2022/10/16 08:54:33;;;;;;;2.00;1.77;;;;;;;;;;5029902;28;20025;-75
2022/10/16 08:57:08;;;;;;;1.85;1.50;;;;;;;;;;5030787;28;20033;-75
2022/10/16 08:59:39;;;;;;;1.80;1.27;;;;;;;;;;5030336;28;20030;-74
2022/10/16 09:02:19;;;;;;;1.75;1.65;;;;;;;;;;5021253;28;20025;-75
2022/10/16 09:05:06;;;;;;;2.30;1.33;;;;;;;;;;5010931;28;20415;-75
2022/10/16 09:07:41;;;;;;;4.80;1.30;;;;;;;;;;5015024;28;20420;-75
2022/10/16 09:10:28;;;;;;;4.93;1.60;;;;;;;;;;5022288;28;20050;-74
2022/10/16 09:13:11;;;;;;;1.90;1.40;;;;;;;;;;5039982;28;20034;-74
2022/10/16 09:15:39;;;;;;;2.97;1.58;;;;;;;;;;5029494;28;20030;-75
2022/10/16 09:18:11;;;;;;;2.10;1.45;;;;;;;;;;5025787;28;20550;-76
2022/10/16 09:20:48;;;;;;;1.90;1.25;;;;;;;;;;5026940;28;20025;-76
2022/10/16 09:23:19;;;;;;;3.85;1.70;;;;;;;;;;5026735;28;20022;-76
2022/10/16 09:25:48;;;;;;;3.58;1.63;;;;;;;;;;5028432;28;20038;-75
2022/10/16 09:28:15;;;;;;;2.33;1.60;;;;;;;;;;5006866;28;20029;-76
2022/10/16 09:30:41;;;;;;;4.85;1.75;;;;;;;;;;5020829;28;20029;-77
2022/10/16 09:33:08;;;;;;;4.45;1.60;;;;;;;;;;5031157;28;20025;-76
2022/10/16 09:35:41;;;;;;;2.30;1.67;;;;;;;;;;5030491;28;20038;-75
2022/10/16 09:38:21;;;;;;;1.88;1.25;;;;;;;;;;5023848;28;20033;-76
2022/10/16 09:40:54;;;;;;;4.93;1.73;;;;;;;;;;5013344;28;20049;-75
2022/10/16 09:43:30;;;;;;;3.88;1.85;;;;;;;;;;5029986;28;20036;-75
2022/10/16 09:46:06;;;;;;;2.33;1.75;;;;;;;;;;5031099;28;20040;-75
2022/10/16 09:48:52;;;;;;;2.85;1.63;;;;;;;;;;5021517;28;20041;-75
2022/10/16 09:51:29;;;;;;;2.28;1.40;;;;;;;;;;5041350;28;20521;-75
2022/10/16 09:53:56;;;;;;;7.32;2.15;;;;;;;;;;5030881;28;20029;-75
2022/10/16 09:56:26;;;;;;;4.80;1.55;;;;;;;;;;5024857;28;20030;-74
2022/10/16 09:58:55;;;;;;;2.03;1.40;;;;;;;;;;5020477;28;20030;-75
2022/10/16 10:01:22;;;;;;;2.47;1.45;;;;;;;;;;5034470;28;20042;-75
2022/10/16 10:03:50;;;;;;;2.20;1.50;;;;;;;;;;5010876;28;20044;-76
2022/10/16 10:06:18;;;;;;;3.78;1.40;;;;;;;;;;5025298;28;20034;-76
2022/10/16 10:08:57;;;;;;;1.42;1.30;;;;;;;;;;5033078;28;20033;-75
2022/10/16 10:11:38;;;;;;;1.90;1.58;;;;;;;;;;5033003;28;20506;-75
2022/10/16 10:14:15;;;;;;;1.92;1.42;;;;;;;;;;5031751;28;20467;-75
2022/10/16 10:16:41;;;;;;;1.98;1.70;;;;;;;;;;5049948;28;20419;-76
2022/10/16 10:19:13;;;;;;;2.90;1.35;;;;;;;;;;5024157;28;20068;-75
2022/10/16 10:21:44;;;;;;;2.88;1.00;;;;;;;;;;5024516;28;20033;-76
2022/10/16 10:24:15;;;;;;;2.67;1.55;;;;;;;;;;5033157;28;20037;-75
2022/10/16 10:27:07;;;;;;;3.67;2.05;;;;;;;;;;5008729;28;20495;-74
2022/10/16 10:29:46;;;;;;;2.88;1.70;;;;;;;;;;5025393;28;20042;-75
2022/10/16 10:32:30;;;;;;;7.75;2.15;;;;;;;;;;5024675;28;20029;-75
2022/10/16 10:35:13;;;;;;;6.18;1.25;;;;;;;;;;5013587;28;20029;-75
2022/10/16 10:37:55;;;;;;;2.95;1.40;;;;;;;;;;5029766;28;20026;-76
2022/10/16 10:40:29;;;;;;;2.90;1.80;;;;;;;;;;5025278;28;20141;-75
2022/10/16 10:43:17;;;;;;;2.97;1.73;;;;;;;;;;5031486;28;20033;-76
2022/10/16 10:45:45;;;;;;;5.65;2.10;;;;;;;;;;5020212;28;20052;-76
2022/10/16 10:48:19;;;;;;;1.15;1.05;;;;;;;;;;5032778;28;20036;-75
2022/10/16 10:50:49;;;;;;;2.13;1.60;;;;;;;;;;5029136;28;20036;-76
2022/10/16 10:53:26;;;;;;;3.15;2.22;;;;;;;;;;5027170;28;20021;-75
2022/10/16 10:56:10;;;;;;;21.63;2.42;;;;;;;;;;5046411;28;20487;-76
2022/10/16 10:58:44;;;;;;;3.00;1.45;;;;;;;;;;5032091;28;20030;-76
2022/10/16 11:01:30;;;;;;;3.25;1.60;;;;;;;;;;5033219;28;20040;-76
2022/10/16 11:04:07;;;;;;;3.13;1.35;;;;;;;;;;5032683;28;20033;-77
2022/10/16 11:06:40;;;;;;;2.60;1.33;;;;;;;;;;5031502;28;20033;-76
2022/10/16 11:09:35;;;;;;;5.28;1.67;;;;;;;;;;5026298;28;20197;-76
2022/10/16 11:12:05;;;;;;;7.43;1.85;;;;;;;;;;5024552;28;20041;-76
2022/10/16 11:14:36;;;;;;;3.47;1.27;;;;;;;;;;5028358;28;20033;-76
2022/10/16 11:17:08;;;;;;;2.67;1.50;;;;;;;;;;5012314;28;20040;-77
2022/10/16 11:19:40;;;;;;;4.60;1.92;;;;;;;;;;5029919;28;20041;-76
2022/10/16 11:22:24;;;;;;;9.80;2.97;;;;;;;;;;5026293;28;20037;-76
2022/10/16 11:25:06;;;;;;;2.60;1.42;;;;;;;;;;5028280;28;20710;-76
2022/10/16 11:27:49;;;;;;;2.78;1.25;;;;;;;;;;5030986;28;20041;-77
2022/10/16 11:30:23;;;;;;;2.67;1.92;;;;;;;;;;5026698;28;20415;-81
2022/10/16 11:32:52;;;;;;;8.38;1.73;;;;;;;;;;5022767;28;20056;-76
2022/10/16 11:35:22;;;;;;;2.60;1.63;;;;;;;;;;5022586;28;20038;-76
2022/10/16 11:37:51;;;;;;;3.08;1.63;;;;;;;;;;5032249;28;20029;-76
2022/10/16 11:40:31;;;;;;;2.08;1.60;;;;;;;;;;5028900;28;20034;-75
2022/10/16 11:43:14;;;;;;;3.90;2.28;;;;;;;;;;5032564;28;20032;-75
2022/10/16 11:45:40;;;;;;;1.48;1.38;;;;;;;;;;5030420;28;20030;-75
2022/10/16 11:48:12;;;;;;;4.32;1.58;;;;;;;;;;5073865;22;20107;-81
2022/10/16 11:50:48;;;;;;;4.03;1.73;;;;;;;;;;5070802;28;20031;-80
2022/10/16 11:53:37;;;;;;;3.72;1.95;;;;;;;;;;5072808;28;20031;-80
2022/10/16 11:56:06;;;;;;;2.22;1.65;;;;;;;;;;5086702;28;20494;-80
2022/10/16 11:58:47;;;;;;;2.35;1.05;;;;;;;;;;5064906;28;20041;-80
2022/10/16 12:01:19;;;;;;;3.38;1.50;;;;;;;;;;5032648;28;20057;-80
2022/10/16 12:04:04;;;;;;;2.90;1.50;;;;;;;;;;5040109;28;20048;-81
2022/10/16 12:06:36;;;;;;;2.55;1.50;;;;;;;;;;5063108;28;20040;-80
2022/10/16 12:09:02;;;;;;;2.63;1.48;;;;;;;;;;5067633;28;20021;-80
2022/10/16 12:11:33;;;;;;;9.38;1.83;;;;;;;;;;5067391;28;20506;-80
2022/10/16 12:14:05;;;;;;;3.08;1.67;;;;;;;;;;5049491;28;20036;-80
2022/10/16 12:16:33;;;;;;;2.20;1.30;;;;;;;;;;5052125;28;20044;-81
2022/10/16 12:19:12;;;;;;;6.00;2.08;;;;;;;;;;5051346;28;20502;-80
2022/10/16 12:21:37;;;;;;;4.13;1.42;;;;;;;;;;5067604;28;20043;-80
2022/10/16 12:24:06;;;;;;;1.67;1.40;;;;;;;;;;5050043;28;20040;-80
2022/10/16 12:26:33;;;;;;;1.83;1.38;;;;;;;;;;5050829;28;20037;-81
2022/10/16 12:29:28;;;;;;;4.25;2.25;;;;;;;;;;5046390;28;20625;-81
2022/10/16 12:32:01;;;;;;;3.83;1.90;;;;;;;;;;5051283;28;20041;-81
2022/10/16 12:34:27;;;;;;;2.65;1.48;;;;;;;;;;5051317;28;20414;-80
2022/10/16 12:37:09;;;;;;;2.55;1.80;;;;;;;;;;5051956;28;20041;-80
2022/10/16 12:39:38;;;;;;;5.60;1.85;;;;;;;;;;5066075;28;20033;-81
2022/10/16 12:42:04;;;;;;;2.03;1.55;;;;;;;;;;5051976;28;20044;-81
2022/10/16 12:44:34;;;;;;;5.97;1.50;;;;;;;;;;5050800;28;20055;-80
2022/10/16 12:47:00;;;;;;;4.05;1.55;;;;;;;;;;5050487;28;20025;-81
2022/10/16 12:49:31;;;;;;;2.40;1.40;;;;;;;;;;5067143;28;20036;-81
2022/10/16 12:52:00;;;;;;;8.30;1.73;;;;;;;;;;5050877;28;20044;-80
2022/10/16 12:54:37;;;;;;;1.60;1.35;;;;;;;;;;5051550;28;20021;-80
2022/10/16 12:57:20;;;;;;;2.17;1.63;;;;;;;;;;5050804;28;20025;-81
2022/10/16 12:59:55;;;;;;;2.08;1.15;;;;;;;;;;5065967;28;20395;-80
2022/10/16 13:02:47;;;;;;;2.40;1.48;;;;;;;;;;5051736;28;20502;-80
2022/10/16 13:05:29;;;;;;;2.88;1.42;;;;;;;;;;5050393;28;20041;-80
2022/10/16 13:07:58;;;;;;;4.43;2.25;;;;;;;;;;5049826;28;20037;-80
2022/10/16 13:10:27;;;;;;;2.70;1.35;;;;;;;;;;5049758;28;20036;-80
2022/10/16 13:13:00;;;;;;;2.10;1.90;;;;;;;;;;5050489;28;20029;-80
2022/10/16 13:15:45;;;;;;;4.35;2.03;;;;;;;;;;5050344;28;20394;-80
2022/10/16 13:18:23;;;;;;;3.13;1.65;;;;;;;;;;5048402;28;20051;-80
2022/10/16 13:20:59;;;;;;;6.22;2.60;;;;;;;;;;5051140;28;20025;-80
2022/10/16 13:23:26;;;;;;;1.88;1.70;;;;;;;;;;5050353;28;20032;-80
2022/10/16 13:25:55;;;;;;;4.25;1.65;;;;;;;;;;5051397;28;20032;-80
2022/10/16 13:28:22;;;;;;;2.30;1.63;;;;;;;;;;5048427;28;20399;-80
2022/10/16 13:30:52;;;;;;;5.47;1.95;;;;;;;;;;5049321;28;20022;-80
2022/10/16 13:33:25;;;;;;;3.35;1.55;;;;;;;;;;5051402;28;20025;-80
2022/10/16 13:35:55;;;;;;;2.22;1.83;;;;;;;;;;5050213;28;20029;-80
2022/10/16 13:38:23;;;;;;;14.50;2.25;;;;;;;;;;5065138;28;20040;-80
2022/10/16 13:41:02;;;;;;;3.28;1.92;;;;;;;;;;5052682;28;20025;-80
2022/10/16 13:43:34;;;;;;;2.33;2.13;;;;;;;;;;5062380;28;20043;-80
2022/10/16 13:46:05;;;;;;;4.00;1.60;;;;;;;;;;5053799;28;20029;-80
2022/10/16 13:48:32;;;;;;;2.25;2.03;;;;;;;;;;5036497;28;20032;-80
2022/10/16 13:51:11;;;;;;;2.25;1.45;;;;;;;;;;5069693;28;20029;-80
2022/10/16 13:53:37;;;;;;;2.55;1.67;;;;;;;;;;5070499;28;20037;-79
2022/10/16 13:56:04;;;;;;;4.47;2.13;;;;;;;;;;5053832;28;20395;-80
2022/10/16 13:58:30;;;;;;;10.13;2.55;;;;;;;;;;5054461;28;20467;-80
2022/10/16 14:01:00;;;;;;;7.70;2.70;;;;;;;;;;5053512;28;20032;-80
2022/10/16 14:03:29;;;;;;;2.05;1.60;;;;;;;;;;5070691;28;20036;-80
2022/10/16 14:05:57;;;;;;;4.80;2.20;;;;;;;;;;5054919;28;20032;-80
2022/10/16 14:08:29;;;;;;;3.38;2.00;;;;;;;;;;5070447;28;20076;-80
2022/10/16 14:10:58;;;;;;;3.25;2.03;;;;;;;;;;5052305;28;20032;-80
2022/10/16 14:13:45;;;;;;;6.03;2.95;;;;;;;;;;5053563;28;20039;-80
2022/10/16 14:16:18;;;;;;;3.20;1.92;;;;;;;;;;5034696;28;20037;-80
2022/10/16 14:18:54;;;;;;;3.05;2.33;;;;;;;;;;5035363;28;20037;-81
2022/10/16 14:21:20;;;;;;;3.25;1.90;;;;;;;;;;5047857;28;20035;-80
2022/10/16 14:23:48;;;;;;;7.82;1.95;;;;;;;;;;5054388;28;20029;-80
2022/10/16 14:26:18;;;;;;;2.22;1.90;;;;;;;;;;5054360;28;20025;-80
2022/10/16 14:28:47;;;;;;;4.80;1.63;;;;;;;;;;5054536;28;20029;-80
2022/10/16 14:31:21;;;;;;;6.05;2.20;;;;;;;;;;5052509;28;20382;-80
2022/10/16 14:33:47;;;;;;;3.15;1.85;;;;;;;;;;5035747;28;20041;-80
2022/10/16 14:36:14;;;;;;;10.32;2.42;;;;;;;;;;5054149;28;20052;-79
2022/10/16 14:38:49;;;;;;;5.88;2.05;;;;;;;;;;5053067;28;20029;-80
2022/10/16 14:41:22;;;;;;;5.60;1.70;;;;;;;;;;5052473;28;20028;-80
2022/10/16 14:43:55;;;;;;;10.73;4.05;;;;;;;;;;5035745;28;20033;-80
2022/10/16 14:46:44;;;;;;;4.40;2.30;;;;;;;;;;5052568;28;20045;-80
2022/10/16 14:49:10;;;;;;;7.80;3.13;;;;;;;;;;5069499;28;20657;-80
2022/10/16 14:51:37;;;;;;;6.28;2.60;;;;;;;;;;5049253;28;20037;-80
2022/10/16 14:54:05;;;;;;;6.82;2.30;;;;;;;;;;5053754;28;20037;-80
2022/10/16 14:56:43;;;;;;;8.43;6.15;;;;;;;;;;5052547;28;20029;-81
2022/10/16 14:59:15;;;;;;;6.03;3.10;;;;;;;;;;5052673;28;20481;-80
2022/10/16 15:01:42;;;;;;;12.55;2.55;;;;;;;;;;5051826;28;20048;-80
2022/10/16 15:04:14;;;;;;;5.15;2.03;;;;;;;;;;5051770;28;20032;-80
2022/10/16 15:06:39;;;;;;;5.35;2.55;;;;;;;;;;5052375;28;20633;-80
2022/10/16 15:09:05;;;;;;;4.55;1.92;;;;;;;;;;5069255;28;20029;-80